createdAt,value
2022-08-17T00:01:51.294Z,99948.75
2022-08-17T00:04:20.655Z,99945.25
2022-08-17T00:06:49.473Z,99936.34
2022-08-17T00:09:19.445Z,99935.22
2022-08-17T00:12:34.883Z,99930.91
2022-08-17T00:14:37.667Z,99935.22
2022-08-17T00:17:06.686Z,99928.22
2022-08-17T00:19:34.451Z,99930.59
2022-08-17T00:22:32.942Z,99932.50
2022-08-17T00:24:52.322Z,99930.59
2022-08-17T00:27:20.348Z,99925.50
2022-08-17T00:29:48.187Z,99922.78
2022-08-17T00:33:13.691Z,99926.59
2022-08-17T00:35:06.431Z,99918.47
2022-08-17T00:37:34.553Z,99923.09
2022-08-17T00:40:04.157Z,99917.19
2022-08-17T00:42:32.174Z,99909.88
2022-08-17T00:45:00.637Z,99910.19
2022-08-17T00:47:28.371Z,99916.72
2022-08-17T00:49:56.547Z,99911.63
2022-08-17T00:52:28.717Z,99917.34
2022-08-17T00:54:57.232Z,99906.34
2022-08-17T00:57:30.709Z,99909.84
2022-08-17T01:00:03.787Z,99904.75
2022-08-17T01:02:43.078Z,99905.88
2022-08-17T01:05:15.767Z,99899.97
2022-08-17T01:07:44.561Z,99899.81
2022-08-17T01:10:58.194Z,99898.19
2022-08-17T01:13:04.287Z,99899.03
2022-08-17T01:15:34.825Z,99898.53
2022-08-17T01:18:03.037Z,99896.94
2022-08-17T01:20:30.857Z,99893.75
2022-08-17T01:23:12.817Z,99892.66
2022-08-17T01:25:50.817Z,99890.22
2022-08-17T01:28:33.424Z,99889.44
2022-08-17T01:31:09.224Z,99891.06
2022-08-17T01:33:37.920Z,99893.25
2022-08-17T01:36:07.353Z,99895.50
2022-08-17T01:38:38.563Z,99895.50
2022-08-17T01:41:09.450Z,99896.13
2022-08-17T01:43:43.190Z,99892.91
2022-08-17T01:46:15.622Z,99903.25
2022-08-17T01:48:47.694Z,99900.06
2022-08-17T01:51:16.580Z,99903.91
2022-08-17T01:53:49.567Z,99901.19
2022-08-17T01:56:20.807Z,99901.00
2022-08-17T01:58:49.207Z,99904.03
2022-08-17T02:01:18.794Z,99899.72
2022-08-17T02:03:59.143Z,99899.25
2022-08-17T02:06:31.654Z,99892.25
2022-08-17T02:09:25.512Z,99892.56
2022-08-17T02:11:54.640Z,99894.78
2022-08-17T02:14:23.129Z,99890.78
2022-08-17T02:16:51.155Z,99894.13
2022-08-17T02:19:19.835Z,99890.94
2022-08-17T02:21:49.921Z,99893.47
2022-08-17T02:25:00.952Z,99889.97
2022-08-17T02:27:11.977Z,99896.50
2022-08-17T02:29:39.993Z,99892.16
2022-08-17T02:32:27.477Z,99916.06
2022-08-17T02:34:57.509Z,99936.13
2022-08-17T02:37:25.601Z,99915.06
2022-08-17T02:39:56.819Z,99911.09
2022-08-17T02:42:28.903Z,99924.63
2022-08-17T02:44:56.901Z,99922.53
2022-08-17T02:47:25.170Z,99931.78
2022-08-17T02:49:55.536Z,99928.28
2022-08-17T02:53:01.965Z,99929.88
2022-08-17T02:55:16.831Z,99933.03
2022-08-17T02:57:45.991Z,99931.13
2022-08-17T03:00:18.045Z,99928.13
2022-08-17T03:02:46.902Z,99923.19
2022-08-17T03:05:18.277Z,99914.59
2022-08-17T03:07:46.541Z,99917.31
2022-08-17T03:10:16.506Z,99917.31
2022-08-17T03:12:45.731Z,99918.91
2022-08-17T03:15:16.199Z,99917.00
2022-08-17T03:17:44.035Z,99912.69
2022-08-17T03:20:13.767Z,99914.28
2022-08-17T03:22:47.940Z,99915.06
2022-08-17T03:25:30.129Z,99913.50
2022-08-17T03:27:58.239Z,99911.09
2022-08-17T03:30:27.200Z,99908.69
2022-08-17T03:32:57.547Z,99912.50
2022-08-17T03:35:28.013Z,99904.41
2022-08-17T03:38:00.238Z,99897.22
2022-08-17T03:40:58.107Z,99914.09
2022-08-17T03:43:19.496Z,99916.50
2022-08-17T03:46:04.994Z,99917.31
2022-08-17T03:48:51.274Z,99929.25
2022-08-17T03:51:41.311Z,99927.34
2022-08-17T03:54:28.726Z,99927.03
2022-08-17T03:57:06.886Z,99936.72
2022-08-17T03:59:36.260Z,99948.19
2022-08-17T04:02:09.328Z,99949.78
2022-08-17T04:04:37.403Z,99950.06
2022-08-17T04:07:05.719Z,99955.81
2022-08-17T04:09:34.014Z,99960.09
2022-08-17T04:12:04.759Z,99973.63
2022-08-17T04:14:39.365Z,99993.69
2022-08-17T04:17:21.178Z,99991.50
2022-08-17T04:19:49.269Z,99997.69
2022-08-17T04:22:31.938Z,100003.91
2022-08-17T04:25:05.588Z,100007.88
2022-08-17T04:27:34.759Z,100007.09
2022-08-17T04:30:02.761Z,100004.88
2022-08-17T04:33:02.297Z,100011.88
2022-08-17T04:35:21.172Z,100001.06
2022-08-17T04:37:49.258Z,99999.16
2022-08-17T04:40:35.003Z,99998.34
2022-08-17T04:43:06.119Z,99993.13
2022-08-17T04:45:34.128Z,99988.81
2022-08-17T04:48:02.367Z,99997.25
2022-08-17T04:50:30.132Z,99999.47
2022-08-17T04:52:58.117Z,99999.28
2022-08-17T04:55:26.222Z,99995.00
2022-08-17T04:57:54.273Z,100002.13
2022-08-17T05:00:25.743Z,100005.94
2022-08-17T05:02:55.926Z,100001.63
2022-08-17T05:05:26.271Z,100007.03
2022-08-17T05:07:54.659Z,99998.91
2022-08-17T05:10:22.859Z,99991.91
2022-08-17T05:12:59.204Z,100006.75
2022-08-17T05:15:29.764Z,100002.72
2022-08-17T05:18:01.300Z,99998.75
2022-08-17T05:20:29.998Z,99999.03
2022-08-17T05:22:59.270Z,99992.03
2022-08-17T05:25:32.752Z,99989.66
2022-08-17T05:28:02.416Z,99983.75
2022-08-17T05:30:31.859Z,99987.56
2022-08-17T05:33:02.061Z,99978.97
2022-08-17T05:35:33.534Z,99986.59
2022-08-17T05:38:01.657Z,99998.81
2022-08-17T05:40:32.870Z,100000.22
2022-08-17T05:43:09.371Z,99994.81
2022-08-17T05:45:55.873Z,99995.41
2022-08-17T05:48:35.727Z,99986.00
2022-08-17T05:51:17.092Z,99997.94
2022-08-17T05:53:51.895Z,100011.44
2022-08-17T05:56:29.475Z,100016.84
2022-08-17T05:59:04.547Z,100017.19
2022-08-17T06:01:42.164Z,100028.78
2022-08-17T06:04:20.705Z,100038.81
2022-08-17T06:06:55.143Z,100037.22
2022-08-17T06:09:35.998Z,100026.41
2022-08-17T06:12:21.990Z,100030.50
2022-08-17T06:15:10.907Z,100032.72
2022-08-17T06:17:41.091Z,100027.13
2022-08-17T06:20:11.774Z,100021.53
2022-08-17T06:22:47.057Z,100028.34
2022-08-17T06:25:16.643Z,100032.97
2022-08-17T06:27:53.602Z,100038.97
2022-08-17T06:30:25.085Z,100042.59
2022-08-17T06:32:59.490Z,100038.28
2022-08-17T06:35:35.803Z,100050.22
2022-08-17T06:38:36.904Z,100060.25
2022-08-17T06:41:05.718Z,100065.81
2022-08-17T06:43:56.225Z,100069.03
2022-08-17T06:46:30.175Z,100059.94
2022-08-17T06:49:12.259Z,100069.63
2022-08-17T06:51:43.705Z,100070.25
2022-08-17T06:54:20.663Z,100081.88
2022-08-17T06:56:55.204Z,100084.06
2022-08-17T06:59:54.176Z,100091.06
2022-08-17T07:02:29.421Z,100097.28
2022-08-17T07:05:14.178Z,100088.34
2022-08-17T07:08:03.856Z,100090.25
2022-08-17T07:10:39.119Z,100087.88
2022-08-17T07:13:21.399Z,100079.28
2022-08-17T07:15:56.811Z,100088.47
2022-08-17T07:18:27.975Z,100075.56
2022-08-17T07:21:04.745Z,100079.06
2022-08-17T07:23:40.762Z,100072.34
2022-08-17T07:26:10.117Z,100076.47
2022-08-17T07:28:38.139Z,100076.78
2022-08-17T07:31:06.998Z,100068.97
2022-08-17T07:33:36.743Z,100075.16
2022-08-17T07:36:06.350Z,100077.88
2022-08-17T07:38:36.465Z,100066.25
2022-08-17T07:41:07.653Z,100064.66
2022-08-17T07:43:37.940Z,100069.28
2022-08-17T07:46:32.644Z,100076.28
2022-08-17T07:49:19.248Z,100078.19
2022-08-17T07:52:24.155Z,100071.97
2022-08-17T07:54:51.908Z,100065.88
2022-08-17T07:57:40.810Z,100065.88
2022-08-17T08:00:26.699Z,100071.28
2022-08-17T08:03:26.215Z,100082.09
2022-08-17T08:05:57.366Z,100077.00
2022-08-17T08:08:33.753Z,100089.09
2022-08-17T08:11:09.167Z,100088.31
2022-08-17T08:13:42.414Z,100077.50
2022-08-17T08:16:23.851Z,100093.13
2022-08-17T08:18:56.804Z,100085.91
2022-08-17T08:21:34.414Z,100077.91
2022-08-17T08:24:17.437Z,100083.31
2022-08-17T08:26:55.471Z,100085.59
2022-08-17T08:29:32.667Z,100087.78
2022-08-17T08:32:10.574Z,100092.69
2022-08-17T08:35:01.525Z,100089.81
2022-08-17T08:37:43.259Z,100087.38
2022-08-17T08:40:33.813Z,100083.09
2022-08-17T08:43:14.984Z,100083.88
2022-08-17T08:45:51.629Z,100065.28
2022-08-17T08:48:55.966Z,100086.09
2022-08-17T08:51:37.309Z,100088.50
2022-08-17T08:54:13.503Z,100094.59
2022-08-17T08:57:19.487Z,100093.91
2022-08-17T08:59:58.064Z,100102.00
2022-08-17T09:02:47.424Z,100102.50
2022-08-17T09:05:29.440Z,100109.81
2022-08-17T09:08:06.124Z,100119.28
2022-08-17T09:10:47.095Z,100110.41
2022-08-17T09:13:23.348Z,100116.31
2022-08-17T09:15:57.282Z,100113.72
2022-08-17T09:19:03.171Z,100120.31
2022-08-17T09:21:22.601Z,100127.72
2022-08-17T09:23:59.930Z,100135.22
2022-08-17T09:26:32.347Z,100139.22
2022-08-17T09:29:07.035Z,100140.81
2022-08-17T09:31:48.815Z,100138.44
2022-08-17T09:34:21.205Z,100140.41
2022-08-17T09:36:57.173Z,100150.34
2022-08-17T09:39:33.789Z,100153.25
2022-08-17T09:42:07.740Z,100153.97
2022-08-17T09:44:41.945Z,100142.75
2022-08-17T09:47:17.194Z,100143.16
2022-08-17T09:49:49.970Z,100147.03
2022-08-17T09:52:22.347Z,100146.66
2022-08-17T09:54:52.479Z,100139.22
2022-08-17T09:57:32.136Z,100131.19
2022-08-17T10:00:16.606Z,100133.97
2022-08-17T10:03:08.354Z,100146.81
2022-08-17T10:05:46.488Z,100142.28
2022-08-17T10:08:25.560Z,100142.63
2022-08-17T10:11:00.745Z,100140.25
2022-08-17T10:13:37.045Z,100131.06
2022-08-17T10:16:14.017Z,100138.34
2022-08-17T10:18:51.738Z,100146.34
2022-08-17T10:21:38.531Z,100147.59
2022-08-17T10:24:31.099Z,100147.19
2022-08-17T10:27:02.601Z,100148.19
2022-08-17T10:29:48.974Z,100152.69
2022-08-17T10:32:28.738Z,100153.97
2022-08-17T10:35:25.937Z,100163.41
2022-08-17T10:38:37.733Z,100167.38
2022-08-17T10:41:17.969Z,100158.66
2022-08-17T10:43:58.904Z,100146.19
2022-08-17T10:47:04.085Z,100149.41
2022-08-17T10:49:36.018Z,100156.09
2022-08-17T10:52:26.961Z,100152.31
2022-08-17T10:55:13.863Z,100160.13
2022-08-17T10:57:44.761Z,100167.13
2022-08-17T11:01:12.628Z,100163.03
2022-08-17T11:03:54.721Z,100169.41
2022-08-17T11:06:34.498Z,100180.44
2022-08-17T11:09:25.457Z,100184.13
2022-08-17T11:12:08.213Z,100179.72
2022-08-17T11:14:54.286Z,100176.88
2022-08-17T11:17:50.032Z,100167.63
2022-08-17T11:20:56.597Z,100177.41
2022-08-17T11:23:53.901Z,100178.53
2022-08-17T11:26:26.915Z,100175.41
2022-08-17T11:29:00.051Z,100168.28
2022-08-17T11:31:38.990Z,100173.84
2022-08-17T11:34:15.189Z,100181.69
2022-08-17T11:37:11.038Z,100185.66
2022-08-17T11:39:53.382Z,100188.84
2022-08-17T11:42:38.655Z,100192.84
2022-08-17T11:45:31.665Z,100188.25
2022-08-17T11:48:29.196Z,100183.16
2022-08-17T11:51:24.560Z,100178.13
2022-08-17T11:54:31.294Z,100168.41
2022-08-17T11:56:55.249Z,100170.69
2022-08-17T11:59:55.241Z,100167.81
2022-08-17T12:02:38.859Z,100171.66
2022-08-17T12:05:42.064Z,100177.25
2022-08-17T12:08:18.570Z,100174.38
2022-08-17T12:11:09.765Z,100175.69
2022-08-17T12:13:45.773Z,100172.31
2022-08-17T12:16:16.392Z,100176.34
2022-08-17T12:18:51.571Z,100180.00
2022-08-17T12:21:25.893Z,100183.66
2022-08-17T12:23:58.524Z,100180.81
2022-08-17T12:26:36.582Z,100180.22
2022-08-17T12:29:38.676Z,100182.78
2022-08-17T12:40:03.213Z,100169.50
2022-08-17T12:42:37.244Z,100173.53
2022-08-17T12:45:07.575Z,100179.41
2022-08-17T12:47:37.839Z,100172.56
2022-08-17T12:50:28.458Z,100164.09
2022-08-17T12:53:01.898Z,100162.19
2022-08-17T12:55:36.812Z,100171.28
2022-08-17T12:58:13.991Z,100168.25
2022-08-17T13:00:50.117Z,100171.13
2022-08-17T13:03:21.148Z,100171.13
2022-08-17T13:05:58.071Z,100165.84
2022-08-17T13:08:29.765Z,100169.38
2022-08-17T13:10:59.035Z,100170.97
2022-08-17T13:13:28.501Z,100165.53
2022-08-17T13:16:00.002Z,100159.47
2022-08-17T13:18:41.885Z,100165.38
2022-08-17T13:21:18.741Z,100152.59
2022-08-17T13:23:57.031Z,100150.38
2022-08-17T13:26:30.821Z,100157.06
2022-08-17T13:29:00.394Z,100148.13
2022-08-17T13:31:42.896Z,100145.06
2022-08-17T13:34:38.705Z,100149.06
2022-08-17T13:37:34.473Z,100151.47
2022-08-17T13:40:25.744Z,100152.91
2022-08-17T13:42:56.419Z,100156.72
2022-08-17T13:45:50.712Z,100155.94
2022-08-17T13:48:30.458Z,100161.34
2022-08-17T13:51:18.051Z,100162.47
2022-08-17T13:53:54.791Z,100167.91
2022-08-17T13:56:37.877Z,100164.75
2022-08-17T13:59:10.174Z,100166.66
2022-08-17T14:01:40.811Z,100162.03
2022-08-17T14:04:12.470Z,100163.63
2022-08-17T14:06:53.197Z,100161.53
2022-08-17T14:09:25.365Z,100154.50
2022-08-17T14:11:55.048Z,100158.34
2022-08-17T14:14:23.629Z,100150.19
2022-08-17T14:16:51.835Z,100145.09
2022-08-17T14:19:25.230Z,100147.81
2022-08-17T14:21:56.484Z,100145.09
2022-08-17T14:24:27.504Z,100141.09
2022-08-17T14:26:55.932Z,100148.94
2022-08-17T14:29:28.266Z,100149.41
2022-08-17T14:31:57.314Z,100147.03
2022-08-17T14:34:26.799Z,100146.69
2022-08-17T14:36:54.660Z,100150.53
2022-08-17T14:39:22.538Z,100145.09
2022-08-17T14:41:50.587Z,100145.56
2022-08-17T14:44:20.358Z,100147.03
2022-08-17T14:46:52.314Z,100144.94
2022-08-17T14:49:25.708Z,100143.00
2022-08-17T14:51:58.801Z,100141.09
2022-08-17T14:54:33.105Z,100140.28
2022-08-17T14:57:22.184Z,100137.13
2022-08-17T14:59:57.028Z,100136.97
2022-08-17T15:02:29.471Z,100132.78
2022-08-17T15:05:02.079Z,100131.34
2022-08-17T15:07:32.517Z,100125.28
2022-08-17T15:10:02.477Z,100111.22
2022-08-17T15:12:34.306Z,100113.16
2022-08-17T15:15:04.801Z,100120.16
2022-08-17T15:17:44.519Z,100116.00
2022-08-17T15:20:17.256Z,100112.19
2022-08-17T15:22:51.662Z,100111.69
2022-08-17T15:25:22.431Z,100110.56
2022-08-17T15:27:55.655Z,100103.69
2022-08-17T15:30:30.139Z,100103.38
2022-08-17T15:32:59.143Z,100101.47
2022-08-17T15:35:34.292Z,100099.22
2022-08-17T15:38:12.018Z,100094.56
2022-08-17T15:40:44.541Z,100101.94
2022-08-17T15:43:16.073Z,100102.72
2022-08-17T15:45:44.182Z,100105.78
2022-08-17T15:48:16.497Z,100094.25
2022-08-17T15:50:49.398Z,100100.47
2022-08-17T15:53:23.289Z,100101.28
2022-08-17T15:55:54.610Z,100099.41
2022-08-17T15:58:30.070Z,100112.81
2022-08-17T16:01:16.535Z,100121.41
2022-08-17T16:04:04.302Z,100131.94
2022-08-17T16:06:35.561Z,100125.25
2022-08-17T16:09:05.145Z,100123.50
2022-08-17T16:11:33.237Z,100127.31
2022-08-17T16:14:01.316Z,100123.78
2022-08-17T16:16:31.457Z,100131.16
2022-08-17T16:18:59.441Z,100127.63
2022-08-17T16:21:29.460Z,100140.94
2022-08-17T16:24:02.391Z,100151.00
2022-08-17T16:26:33.579Z,100151.78
2022-08-17T16:29:04.931Z,100159.63
2022-08-17T16:31:33.047Z,100161.38
2022-08-17T16:34:17.240Z,100159.25
2022-08-17T16:36:55.728Z,100164.22
2022-08-17T16:39:26.602Z,100173.47
2022-08-17T16:41:58.279Z,100172.50
2022-08-17T16:44:32.600Z,100177.75
2022-08-17T16:47:02.433Z,100181.91
2022-08-17T16:49:35.466Z,100175.19
2022-08-17T16:52:05.601Z,100179.34
2022-08-17T16:54:33.464Z,100186.69
2022-08-17T16:57:05.382Z,100192.91
2022-08-17T16:59:40.781Z,100190.19
2022-08-17T17:02:19.856Z,100187.16
2022-08-17T17:04:53.508Z,100186.84
2022-08-17T17:07:45.607Z,100187.63
2022-08-17T17:10:16.842Z,100191.13
2022-08-17T17:13:02.071Z,100202.13
2022-08-17T17:15:42.861Z,100200.06
2022-08-17T17:18:14.870Z,100194.47
2022-08-17T17:20:48.931Z,100197.00
2022-08-17T17:23:29.249Z,100188.06
2022-08-17T17:26:04.560Z,100192.69
2022-08-17T17:28:40.689Z,100190.50
2022-08-17T17:31:12.985Z,100193.06
2022-08-17T17:33:48.011Z,100193.50
2022-08-17T17:36:25.217Z,100198.63
2022-08-17T17:38:55.916Z,100189.00
2022-08-17T17:41:30.220Z,100179.28
2022-08-17T17:44:03.722Z,100178.63
2022-08-17T17:46:37.834Z,100171.91
2022-08-17T17:49:07.091Z,100155.47
2022-08-17T17:52:09.361Z,100168.22
2022-08-17T17:54:44.325Z,100163.69
2022-08-17T17:57:22.265Z,100163.22
2022-08-17T17:59:59.613Z,100164.97
2022-08-17T18:02:52.232Z,100174.69
2022-08-17T18:05:38.836Z,100173.84
2022-08-17T18:08:32.118Z,100178.97
2022-08-17T18:11:13.492Z,100185.47
2022-08-17T18:13:56.806Z,100183.69
2022-08-17T18:16:32.085Z,100188.16
2022-08-17T18:19:00.992Z,100184.34
2022-08-17T18:21:36.180Z,100191.66
2022-08-17T18:24:04.897Z,100176.53
2022-08-17T18:26:55.533Z,100181.94
2022-08-17T18:29:45.271Z,100184.16
2022-08-17T18:32:36.675Z,100192.72
2022-08-17T18:35:30.771Z,100195.13
2022-08-17T18:38:20.550Z,100196.56
2022-08-17T18:40:59.394Z,100191.16
2022-08-17T18:43:36.466Z,100185.53
2022-08-17T18:46:28.569Z,100193.66
2022-08-17T18:49:01.548Z,100196.06
2022-08-17T18:51:40.525Z,100191.75
2022-08-17T18:54:16.667Z,100190.91
2022-08-17T18:56:45.246Z,100194.72
2022-08-17T18:59:36.944Z,100192.13
2022-08-17T19:02:32.454Z,100196.78
2022-08-17T19:05:13.260Z,100194.81
2022-08-17T19:07:42.751Z,100213.06
2022-08-17T19:10:25.137Z,100215.91
2022-08-17T19:13:00.881Z,100228.97
2022-08-17T19:15:42.701Z,100229.38
2022-08-17T19:18:16.003Z,100248.81
2022-08-17T19:20:51.727Z,100239.59
2022-08-17T19:23:25.365Z,100251.63
2022-08-17T19:25:58.614Z,100255.47
2022-08-17T19:28:30.558Z,100261.34
2022-08-17T19:31:02.805Z,100268.47
2022-08-17T19:33:32.513Z,100272.50
2022-08-17T19:36:08.511Z,100283.81
2022-08-17T19:38:45.735Z,100287.31
2022-08-17T19:41:21.819Z,100286.50
2022-08-17T19:44:06.993Z,100285.72
2022-08-17T19:46:49.832Z,100284.13
2022-08-17T19:49:34.498Z,100283.63
2022-08-17T19:52:28.935Z,100295.53
2022-08-17T19:55:01.564Z,100305.41
2022-08-17T19:57:42.769Z,100307.59
2022-08-17T20:00:14.759Z,100305.78
2022-08-17T20:02:50.587Z,100311.50
2022-08-17T20:05:24.854Z,100311.28
2022-08-17T20:08:02.147Z,100313.19
2022-08-17T20:10:38.515Z,100316.53
2022-08-17T20:13:10.996Z,100316.81
2022-08-17T20:15:42.197Z,100311.50
2022-08-17T20:18:18.524Z,100318.81
2022-08-17T20:20:56.481Z,100324.81
2022-08-17T20:23:50.463Z,100332.72
2022-08-17T20:26:23.242Z,100328.69
2022-08-17T20:29:11.347Z,100341.72
2022-08-17T20:31:45.895Z,100340.41
2022-08-17T20:34:36.803Z,100325.91
2022-08-17T20:37:08.841Z,100323.78
2022-08-17T20:39:42.627Z,100323.31
2022-08-17T20:42:29.248Z,100321.78
2022-08-17T20:44:59.201Z,100327.00
2022-08-17T20:47:30.010Z,100335.69
2022-08-17T20:50:03.263Z,100336.00
2022-08-17T20:52:50.749Z,100335.78
2022-08-17T20:55:56.088Z,100346.09
2022-08-17T20:58:47.539Z,100333.19
2022-08-17T21:01:24.388Z,100332.16
2022-08-17T21:03:54.129Z,100333.84
2022-08-17T21:06:25.480Z,100333.34
2022-08-17T21:08:58.599Z,100333.94
2022-08-17T21:12:03.034Z,100330.75
2022-08-17T21:14:56.115Z,100342.66
2022-08-17T21:17:42.107Z,100332.50
2022-08-17T21:20:25.250Z,100349.22
2022-08-17T21:23:21.053Z,100347.63
2022-08-17T21:26:02.491Z,100344.41
2022-08-17T21:29:01.344Z,100347.66
2022-08-17T21:31:34.877Z,100350.97
2022-08-17T21:34:31.775Z,100352.66
2022-08-17T21:37:30.419Z,100364.84
2022-08-17T21:40:01.087Z,100370.06
2022-08-17T21:42:32.076Z,100368.72
2022-08-17T21:45:10.800Z,100361.00
2022-08-17T21:47:47.489Z,100362.59
2022-08-17T21:50:19.659Z,100359.41
2022-08-17T21:52:49.566Z,100350.28
2022-08-17T21:55:23.381Z,100350.28
2022-08-17T21:57:55.419Z,100356.56
2022-08-17T22:00:40.794Z,100345.53
2022-08-17T22:03:23.934Z,100342.31
2022-08-17T22:05:51.984Z,100333.19
2022-08-17T22:08:22.339Z,100336.47
2022-08-17T22:10:51.529Z,100343.56
2022-08-17T22:13:24.359Z,100340.94
2022-08-17T22:16:15.496Z,100349.31
2022-08-17T22:18:58.078Z,100346.38
2022-08-17T22:21:26.485Z,100350.19
2022-08-17T22:24:06.380Z,100352.38
2022-08-17T22:27:01.168Z,100351.34
2022-08-17T22:30:02.248Z,100343.56
2022-08-17T22:32:38.794Z,100346.50
2022-08-17T22:35:32.838Z,100350.59
2022-08-17T22:38:32.049Z,100346.06
2022-08-17T22:41:26.188Z,100354.16
2022-08-17T22:43:57.432Z,100354.22
2022-08-17T22:46:26.926Z,100349.41
2022-08-17T22:48:59.280Z,100350.50
2022-08-17T22:51:30.787Z,100339.19
2022-08-17T22:54:19.170Z,100335.97
2022-08-17T22:57:15.269Z,100345.97
2022-08-17T22:59:50.160Z,100346.81
2022-08-17T23:02:27.139Z,100350.63
2022-08-17T23:05:18.870Z,100338.00
2022-08-17T23:07:48.090Z,100337.25
2022-08-17T23:10:16.395Z,100336.75
2022-08-17T23:12:44.149Z,100332.72
2022-08-17T23:15:17.442Z,100338.41
2022-08-17T23:17:45.527Z,100341.69
2022-08-17T23:20:17.767Z,100334.69
2022-08-17T23:22:52.194Z,100334.19
2022-08-17T23:25:27.231Z,100334.19
2022-08-17T23:27:55.470Z,100330.44
2022-08-17T23:30:25.378Z,100326.16
2022-08-17T23:32:54.375Z,100335.59
2022-08-17T23:35:40.489Z,100322.41
2022-08-17T23:38:09.823Z,100322.72
2022-08-17T23:40:39.375Z,100328.66
2022-08-17T23:43:24.723Z,100327.06
2022-08-17T23:45:57.430Z,100329.22
2022-08-17T23:48:28.466Z,100338.72
2022-08-17T23:51:09.611Z,100345.19
2022-08-17T23:53:42.135Z,100346.53
2022-08-17T23:56:11.262Z,100359.75
2022-08-17T23:58:40.290Z,100359.81
